createdAt,value
2023-03-01T00:01:45.768Z,3.47
2023-03-01T00:04:13.875Z,3.67
2023-03-01T00:06:44.281Z,3.92
2023-03-01T00:09:13.348Z,3.20
2023-03-01T00:11:41.243Z,3.20
2023-03-01T00:14:09.001Z,3.55
2023-03-01T00:16:42.684Z,3.40
2023-03-01T00:19:19.193Z,3.22
2023-03-01T00:21:47.513Z,2.87
2023-03-01T00:24:16.126Z,3.25
2023-03-01T00:26:44.257Z,2.65
2023-03-01T00:29:12.019Z,2.90
2023-03-01T00:31:40.038Z,2.80
2023-03-01T00:34:08.014Z,2.72
2023-03-01T00:36:37.984Z,3.05
2023-03-01T00:39:10.696Z,2.70
2023-03-01T00:41:41.542Z,2.92
2023-03-01T00:44:10.292Z,2.72
2023-03-01T00:46:38.394Z,2.95
2023-03-01T00:49:06.348Z,2.60
2023-03-01T00:51:34.630Z,2.83
2023-03-01T00:54:04.673Z,2.95
2023-03-01T00:56:33.036Z,2.70
2023-03-01T00:59:01.529Z,2.42
2023-03-01T01:01:32.119Z,3.30
2023-03-01T01:04:07.735Z,2.60
2023-03-01T01:06:39.140Z,2.30
2023-03-01T01:09:08.311Z,2.40
2023-03-01T01:11:37.659Z,2.60
2023-03-01T01:14:06.151Z,2.40
2023-03-01T01:16:35.779Z,2.38
2023-03-01T01:19:03.929Z,2.50
2023-03-01T01:21:32.551Z,2.40
2023-03-01T01:24:00.918Z,2.75
2023-03-01T01:26:32.298Z,2.90
2023-03-01T01:29:03.673Z,2.53
2023-03-01T01:31:33.194Z,2.85
2023-03-01T01:34:04.312Z,2.33
2023-03-01T01:36:34.415Z,2.58
2023-03-01T01:39:03.298Z,3.00
2023-03-01T01:41:32.685Z,2.10
2023-03-01T01:44:24.557Z,1.85
2023-03-01T01:47:02.418Z,2.10
2023-03-01T01:49:30.289Z,2.28
2023-03-01T01:52:03.483Z,1.92
2023-03-01T01:54:57.376Z,1.90
2023-03-01T01:57:35.285Z,1.90
2023-03-01T02:00:09.359Z,2.20
2023-03-01T02:02:45.968Z,2.00
2023-03-01T02:05:46.802Z,1.98
2023-03-01T02:08:17.380Z,1.80
2023-03-01T02:10:46.660Z,1.70
2023-03-01T02:13:14.514Z,1.80
2023-03-01T02:15:45.483Z,1.75
2023-03-01T02:18:18.024Z,1.92
2023-03-01T02:21:04.043Z,2.17
2023-03-01T02:23:32.803Z,1.88
2023-03-01T02:26:21.340Z,1.88
2023-03-01T02:28:50.394Z,2.08
2023-03-01T02:31:40.202Z,2.00
2023-03-01T02:34:10.186Z,1.70
2023-03-01T02:36:42.360Z,1.83
2023-03-01T02:39:19.520Z,1.55
2023-03-01T02:41:51.317Z,1.63
2023-03-01T02:44:19.683Z,1.80
2023-03-01T02:46:51.832Z,1.67
2023-03-01T02:49:28.371Z,1.80
2023-03-01T02:52:19.453Z,1.70
2023-03-01T02:54:59.995Z,2.05
2023-03-01T02:57:30.007Z,1.73
2023-03-01T03:00:00.784Z,2.03
2023-03-01T03:02:40.847Z,1.58
2023-03-01T03:05:27.166Z,1.73
2023-03-01T03:07:59.364Z,1.48
2023-03-01T03:10:30.185Z,1.60
2023-03-01T03:13:01.576Z,1.60
2023-03-01T03:15:31.268Z,1.63
2023-03-01T03:18:00.173Z,1.73
2023-03-01T03:20:30.034Z,2.10
2023-03-01T03:22:59.581Z,1.95
2023-03-01T03:25:31.979Z,1.73
2023-03-01T03:28:00.229Z,2.00
2023-03-01T03:30:33.710Z,1.65
2023-03-01T03:33:01.611Z,1.98
2023-03-01T03:35:35.434Z,1.75
2023-03-01T03:38:07.586Z,1.73
2023-03-01T03:40:38.319Z,2.00
2023-03-01T03:43:13.277Z,1.73
2023-03-01T03:45:41.222Z,1.80
2023-03-01T03:48:11.235Z,2.10
2023-03-01T03:50:40.249Z,1.67
2023-03-01T03:53:11.794Z,1.90
2023-03-01T03:55:40.462Z,1.80
2023-03-01T03:58:13.113Z,1.73
2023-03-01T04:00:43.794Z,1.60
2023-03-01T04:03:14.021Z,1.83
2023-03-01T04:05:43.170Z,1.40
2023-03-01T04:08:11.459Z,1.80
2023-03-01T04:10:45.131Z,1.50
2023-03-01T04:13:15.562Z,1.90
2023-03-01T04:15:47.145Z,1.65
2023-03-01T04:18:16.941Z,1.45
2023-03-01T04:20:46.788Z,1.58
2023-03-01T04:23:19.826Z,1.60
2023-03-01T04:25:56.783Z,2.00
2023-03-01T04:28:28.865Z,1.40
2023-03-01T04:31:01.432Z,1.75
2023-03-01T04:33:29.206Z,1.98
2023-03-01T04:35:58.797Z,1.83
2023-03-01T04:38:28.019Z,1.83
2023-03-01T04:40:55.792Z,1.73
2023-03-01T04:43:23.477Z,1.58
2023-03-01T04:45:52.072Z,2.03
2023-03-01T04:48:19.888Z,1.70
2023-03-01T04:50:47.838Z,1.85
2023-03-01T04:53:15.617Z,1.63
2023-03-01T04:55:43.469Z,2.33
2023-03-01T04:58:11.197Z,2.33
2023-03-01T05:00:39.005Z,1.80
2023-03-01T05:03:09.666Z,1.58
2023-03-01T05:05:39.979Z,1.80
2023-03-01T05:08:09.299Z,1.80
2023-03-01T05:10:38.895Z,1.77
2023-03-01T05:13:07.877Z,2.20
2023-03-01T05:15:37.754Z,1.90
2023-03-01T05:18:08.245Z,1.77
2023-03-01T05:20:37.469Z,2.10
2023-03-01T05:23:06.761Z,1.80
2023-03-01T05:25:35.807Z,1.80
2023-03-01T05:28:07.514Z,1.98
2023-03-01T05:30:35.959Z,2.00
2023-03-01T05:33:03.754Z,1.88
2023-03-01T05:35:33.936Z,2.22
2023-03-01T05:38:01.822Z,2.28
2023-03-01T05:40:30.842Z,2.10
2023-03-01T05:42:59.061Z,1.88
2023-03-01T05:45:30.947Z,2.30
2023-03-01T05:47:59.421Z,2.97
2023-03-01T05:50:30.471Z,3.85
2023-03-01T05:53:13.513Z,3.83
2023-03-01T05:55:42.248Z,3.28
2023-03-01T05:58:15.232Z,4.20
2023-03-01T06:00:44.752Z,4.20
2023-03-01T06:03:14.495Z,3.45
2023-03-01T06:05:44.591Z,3.55
2023-03-01T06:08:13.660Z,5.75
2023-03-01T06:10:41.976Z,7.47
2023-03-01T06:13:13.020Z,6.47
2023-03-01T06:15:41.197Z,5.38
2023-03-01T06:18:10.178Z,4.78
2023-03-01T06:20:37.915Z,3.67
2023-03-01T06:23:05.750Z,3.78
2023-03-01T06:25:33.982Z,7.53
2023-03-01T06:28:02.234Z,6.10
2023-03-01T06:30:30.087Z,5.13
2023-03-01T06:33:01.966Z,4.78
2023-03-01T06:35:32.351Z,4.82
2023-03-01T06:38:04.012Z,4.45
2023-03-01T06:40:36.410Z,10.73
2023-03-01T06:43:04.311Z,5.40
2023-03-01T06:45:32.154Z,4.47
2023-03-01T06:48:08.193Z,4.35
2023-03-01T06:50:48.737Z,3.55
2023-03-01T06:53:16.863Z,3.15
2023-03-01T06:55:44.889Z,3.65
2023-03-01T06:58:12.766Z,2.20
2023-03-01T07:00:42.070Z,2.47
2023-03-01T07:03:10.765Z,2.60
2023-03-01T07:05:38.789Z,2.90
2023-03-01T07:08:07.715Z,2.45
2023-03-01T07:10:35.424Z,2.45
2023-03-01T07:13:03.287Z,2.25
2023-03-01T07:15:31.092Z,2.30
2023-03-01T07:17:59.006Z,2.60
2023-03-01T07:20:26.906Z,2.75
2023-03-01T07:22:59.698Z,2.80
2023-03-01T07:25:29.030Z,2.70
2023-03-01T07:27:56.819Z,2.50
2023-03-01T07:30:27.178Z,2.72
2023-03-01T07:32:57.101Z,3.10
2023-03-01T07:35:27.855Z,2.97
2023-03-01T07:37:55.796Z,3.17
2023-03-01T07:40:26.076Z,2.90
2023-03-01T07:42:58.940Z,2.95
2023-03-01T07:45:27.277Z,2.75
2023-03-01T07:47:56.792Z,2.90
2023-03-01T07:50:24.979Z,2.95
2023-03-01T07:52:53.240Z,2.58
2023-03-01T07:55:22.156Z,3.13
2023-03-01T07:57:50.106Z,3.28
2023-03-01T08:00:18.609Z,2.60
2023-03-01T08:02:46.562Z,2.95
2023-03-01T08:05:14.658Z,3.15
2023-03-01T08:07:42.493Z,3.20
2023-03-01T08:10:12.570Z,3.60
2023-03-01T08:12:40.445Z,2.92
2023-03-01T08:15:09.301Z,3.00
2023-03-01T08:17:37.361Z,3.17
2023-03-01T08:20:08.080Z,3.03
2023-03-01T08:22:35.931Z,3.60
2023-03-01T08:25:03.828Z,3.65
2023-03-01T08:27:31.515Z,3.92
2023-03-01T08:30:01.227Z,3.90
2023-03-01T08:32:29.086Z,5.00
2023-03-01T08:34:57.154Z,4.07
2023-03-01T08:37:24.904Z,5.22
2023-03-01T08:39:52.716Z,5.13
2023-03-01T08:42:20.593Z,4.30
2023-03-01T08:44:48.467Z,4.10
2023-03-01T08:47:16.624Z,4.60
2023-03-01T08:49:44.599Z,4.65
2023-03-01T08:52:12.430Z,3.83
2023-03-01T08:54:40.536Z,4.70
2023-03-01T08:57:10.272Z,4.57
2023-03-01T08:59:38.562Z,5.20
2023-03-01T09:02:17.197Z,4.50
2023-03-01T09:04:45.500Z,4.28
2023-03-01T09:07:13.371Z,5.05
2023-03-01T09:09:41.124Z,4.75
2023-03-01T09:12:09.347Z,4.10
2023-03-01T09:14:39.360Z,4.10
2023-03-01T09:17:07.543Z,4.20
2023-03-01T09:19:35.732Z,5.47
2023-03-01T09:22:05.572Z,4.20
2023-03-01T09:24:33.522Z,4.78
2023-03-01T09:27:02.138Z,4.22
2023-03-01T09:29:30.636Z,3.85
2023-03-01T09:31:58.573Z,4.30
2023-03-01T09:34:27.829Z,4.55
2023-03-01T09:36:55.642Z,4.03
2023-03-01T09:39:23.972Z,4.40
2023-03-01T09:42:04.285Z,5.32
2023-03-01T09:44:58.742Z,4.63
2023-03-01T09:47:31.130Z,4.97
2023-03-01T09:50:15.085Z,5.05
2023-03-01T09:52:47.374Z,4.88
2023-03-01T09:55:18.933Z,4.78
2023-03-01T09:57:51.697Z,4.13
2023-03-01T10:00:25.803Z,3.95
2023-03-01T10:03:03.151Z,4.07
2023-03-01T10:05:51.276Z,3.90
2023-03-01T10:08:34.569Z,4.50
2023-03-01T10:11:02.445Z,4.78
2023-03-01T10:13:59.421Z,4.68
2023-03-01T10:16:44.652Z,4.03
2023-03-01T10:19:19.897Z,4.60
2023-03-01T10:21:48.358Z,5.00
2023-03-01T10:24:20.137Z,4.97
2023-03-01T10:27:09.622Z,4.88
2023-03-01T10:29:56.424Z,7.18
2023-03-01T10:32:25.225Z,7.50
2023-03-01T10:34:53.432Z,7.45
2023-03-01T10:37:24.458Z,5.72
2023-03-01T10:40:09.542Z,5.30
2023-03-01T10:42:48.066Z,4.57
2023-03-01T10:45:42.503Z,4.50
2023-03-01T10:48:17.240Z,4.25
2023-03-01T10:50:48.150Z,4.97
2023-03-01T10:53:27.774Z,5.13
2023-03-01T10:56:05.994Z,6.00
2023-03-01T10:58:36.875Z,5.20
2023-03-01T11:01:07.967Z,4.57
2023-03-01T11:03:40.198Z,3.80
2023-03-01T11:06:14.523Z,3.38
2023-03-01T11:08:47.187Z,3.28
2023-03-01T11:11:22.789Z,3.47
2023-03-01T11:14:24.956Z,3.10
2023-03-01T11:17:15.619Z,3.78
2023-03-01T11:19:48.851Z,3.30
2023-03-01T11:22:24.978Z,3.65
2023-03-01T11:25:08.948Z,3.35
2023-03-01T11:27:44.840Z,3.92
2023-03-01T11:30:40.808Z,3.85
2023-03-01T11:33:25.413Z,3.58
2023-03-01T11:36:07.220Z,2.80
2023-03-01T11:38:37.927Z,3.13
2023-03-01T11:41:19.851Z,3.00
2023-03-01T11:44:00.069Z,3.40
2023-03-01T11:46:34.516Z,3.53
2023-03-01T11:49:38.188Z,4.00
2023-03-01T11:52:51.554Z,3.85
2023-03-01T11:55:46.416Z,3.67
2023-03-01T11:58:45.727Z,3.17
2023-03-01T12:01:13.608Z,3.50
2023-03-01T12:04:07.842Z,4.20
2023-03-01T12:06:38.885Z,3.55
2023-03-01T12:09:23.028Z,4.00
2023-03-01T12:11:54.174Z,3.90
2023-03-01T12:14:41.226Z,4.95
2023-03-01T12:17:37.519Z,3.47
2023-03-01T12:20:32.647Z,4.03
2023-03-01T12:23:23.900Z,3.35
2023-03-01T12:26:04.314Z,2.97
2023-03-01T12:29:11.141Z,3.20
2023-03-01T12:31:48.180Z,3.20
2023-03-01T12:34:29.820Z,3.08
2023-03-01T12:37:33.169Z,3.22
2023-03-01T12:40:30.633Z,3.13
2023-03-01T12:43:23.803Z,3.72
2023-03-01T12:46:16.206Z,3.65
2023-03-01T12:49:11.541Z,3.75
2023-03-01T12:51:41.203Z,3.90
2023-03-01T12:54:29.229Z,4.28
2023-03-01T12:57:02.679Z,3.97
2023-03-01T12:59:40.573Z,5.22
2023-03-01T13:02:29.426Z,7.70
2023-03-01T13:05:05.467Z,10.57
2023-03-01T13:07:51.642Z,8.38
2023-03-01T13:10:29.654Z,6.43
2023-03-01T13:12:58.169Z,4.78
2023-03-01T13:15:37.726Z,3.53
2023-03-01T13:18:20.522Z,3.60
2023-03-01T13:20:58.567Z,3.35
2023-03-01T13:23:32.256Z,3.78
2023-03-01T13:26:00.183Z,3.28
2023-03-01T13:28:47.178Z,5.25
2023-03-01T13:31:23.355Z,6.20
2023-03-01T13:33:52.372Z,6.43
2023-03-01T13:36:34.132Z,6.15
2023-03-01T13:39:33.511Z,5.50
2023-03-01T13:42:01.982Z,6.53
2023-03-01T13:44:40.067Z,6.75
2023-03-01T13:47:15.089Z,6.30
2023-03-01T13:49:54.856Z,6.20
2023-03-01T13:52:43.152Z,5.55
2023-03-01T13:55:42.280Z,5.18
2023-03-01T13:58:24.687Z,4.60
2023-03-01T14:00:59.066Z,3.78
2023-03-01T14:03:29.498Z,3.35
2023-03-01T14:06:14.690Z,3.47
2023-03-01T14:08:47.064Z,3.75
2023-03-01T14:11:15.193Z,3.40
2023-03-01T14:14:19.707Z,3.72
2023-03-01T14:17:09.512Z,4.10
2023-03-01T14:19:37.657Z,4.20
2023-03-01T14:22:26.229Z,4.90
2023-03-01T14:25:01.670Z,5.35
2023-03-01T14:27:36.772Z,4.90
2023-03-01T14:30:16.253Z,5.25
2023-03-01T14:32:44.472Z,5.95
2023-03-01T14:35:28.385Z,5.05
2023-03-01T14:37:59.064Z,4.82
2023-03-01T14:40:32.453Z,5.20
2023-03-01T14:43:02.858Z,5.85
2023-03-01T14:45:34.496Z,5.85
2023-03-01T14:48:05.548Z,6.43
2023-03-01T14:50:36.673Z,6.07
2023-03-01T14:53:09.071Z,5.65
2023-03-01T14:55:42.313Z,5.32
2023-03-01T14:58:15.302Z,5.57
2023-03-01T15:00:56.158Z,5.07
2023-03-01T15:03:40.515Z,6.00
2023-03-01T15:06:10.334Z,6.47
2023-03-01T15:08:42.504Z,6.10
2023-03-01T15:11:26.623Z,6.05
2023-03-01T15:13:56.326Z,6.70
2023-03-01T15:16:27.597Z,6.13
2023-03-01T15:19:08.019Z,7.03
2023-03-01T15:21:38.389Z,6.53
2023-03-01T15:24:06.517Z,6.32
2023-03-01T15:26:43.442Z,5.80
2023-03-01T15:29:23.387Z,5.70
2023-03-01T15:32:06.456Z,5.35
2023-03-01T15:34:38.034Z,5.25
2023-03-01T15:37:09.935Z,4.72
2023-03-01T15:39:44.633Z,5.68
2023-03-01T15:42:35.543Z,5.32
2023-03-01T15:45:09.599Z,5.32
2023-03-01T15:47:41.386Z,5.00
2023-03-01T15:50:23.602Z,5.30
2023-03-01T15:52:52.264Z,4.78
2023-03-01T15:55:25.858Z,5.38
2023-03-01T15:58:15.553Z,5.63
2023-03-01T16:00:58.186Z,5.78
2023-03-01T16:03:30.612Z,8.55
2023-03-01T16:05:58.631Z,7.68
2023-03-01T16:08:29.291Z,27.48
2023-03-01T16:10:58.650Z,26.77
2023-03-01T16:13:29.640Z,17.38
2023-03-01T16:15:58.095Z,12.60
2023-03-01T16:18:26.378Z,9.18
2023-03-01T16:23:47.573Z,7.70
2023-03-01T16:26:21.354Z,6.68
2023-03-01T16:28:49.717Z,6.05
2023-03-01T16:31:21.815Z,6.00
2023-03-01T16:33:51.233Z,5.57
2023-03-01T16:36:21.777Z,5.47
2023-03-01T16:38:49.557Z,6.03
2023-03-01T16:41:21.189Z,5.53
2023-03-01T16:43:49.698Z,5.43
2023-03-01T16:46:23.918Z,5.05
2023-03-01T16:48:53.108Z,5.80
2023-03-01T16:51:22.642Z,5.60
2023-03-01T16:53:52.759Z,5.07
2023-03-01T16:56:21.044Z,4.65
2023-03-01T16:58:49.042Z,5.00
2023-03-01T17:01:19.790Z,5.43
2023-03-01T17:03:49.779Z,5.53
2023-03-01T17:06:21.581Z,5.47
2023-03-01T17:08:49.488Z,5.47
2023-03-01T17:11:19.738Z,5.03
2023-03-01T17:13:48.213Z,5.03
2023-03-01T17:16:19.998Z,5.35
2023-03-01T17:18:48.294Z,5.20
2023-03-01T17:21:16.346Z,5.03
2023-03-01T17:23:46.236Z,5.40
2023-03-01T17:26:14.454Z,5.63
2023-03-01T17:28:44.019Z,5.97
2023-03-01T17:31:12.134Z,5.85
2023-03-01T17:33:41.550Z,5.10
2023-03-01T17:36:09.422Z,5.28
2023-03-01T17:38:40.050Z,5.10
2023-03-01T17:41:08.244Z,5.32
2023-03-01T17:43:36.099Z,5.10
2023-03-01T17:46:04.887Z,5.30
2023-03-01T17:48:32.751Z,4.70
2023-03-01T17:51:00.599Z,5.00
2023-03-01T17:53:28.828Z,5.57
2023-03-01T17:56:01.813Z,6.18
2023-03-01T17:58:30.291Z,6.10
2023-03-01T18:01:15.000Z,5.57
2023-03-01T18:03:47.487Z,6.30
2023-03-01T18:06:18.250Z,8.50
2023-03-01T18:08:47.276Z,8.55
2023-03-01T18:11:15.947Z,6.88
2023-03-01T18:13:44.708Z,6.75
2023-03-01T18:16:15.683Z,5.95
2023-03-01T18:18:45.464Z,5.68
2023-03-01T18:21:14.188Z,6.40
2023-03-01T18:23:51.363Z,5.43
2023-03-01T18:26:22.256Z,6.38
2023-03-01T18:28:52.101Z,6.30
2023-03-01T18:31:22.860Z,6.20
2023-03-01T18:33:55.100Z,6.43
2023-03-01T18:36:29.093Z,6.50
2023-03-01T18:38:58.894Z,6.65
2023-03-01T18:41:28.616Z,6.22
2023-03-01T18:43:57.688Z,5.90
2023-03-01T18:46:27.506Z,6.35
2023-03-01T18:48:56.029Z,6.35
2023-03-01T18:51:26.776Z,7.53
2023-03-01T18:53:55.826Z,7.60
2023-03-01T18:56:24.292Z,8.38
2023-03-01T18:58:52.141Z,7.40
2023-03-01T19:01:22.610Z,7.25
2023-03-01T19:03:51.693Z,7.63
2023-03-01T19:06:20.179Z,8.68
2023-03-01T19:08:50.302Z,9.15
2023-03-01T19:11:18.262Z,11.00
2023-03-01T19:13:47.364Z,9.75
2023-03-01T19:16:18.132Z,10.75
2023-03-01T19:18:54.217Z,8.00
2023-03-01T19:21:27.064Z,8.10
2023-03-01T19:23:56.410Z,9.00
2023-03-01T19:26:27.781Z,7.95
2023-03-01T19:28:56.887Z,8.27
2023-03-01T19:31:27.411Z,8.07
2023-03-01T19:34:09.983Z,8.75
2023-03-01T19:36:43.210Z,7.60
2023-03-01T19:39:14.247Z,8.18
2023-03-01T19:41:43.087Z,7.43
2023-03-01T19:44:12.495Z,7.40
2023-03-01T19:46:43.330Z,7.20
2023-03-01T19:49:11.314Z,7.68
2023-03-01T19:51:39.735Z,7.82
2023-03-01T19:54:12.549Z,7.20
2023-03-01T19:56:41.188Z,8.20
2023-03-01T19:59:09.201Z,8.45
2023-03-01T20:01:37.979Z,9.98
2023-03-01T20:04:06.374Z,10.30
2023-03-01T20:06:34.893Z,9.88
2023-03-01T20:09:15.613Z,10.23
2023-03-01T20:11:48.981Z,10.18
2023-03-01T20:14:17.296Z,8.93
2023-03-01T20:16:45.188Z,9.13
2023-03-01T20:19:12.970Z,9.48
2023-03-01T20:21:41.003Z,9.75
2023-03-01T20:24:09.141Z,9.82
2023-03-01T20:26:38.718Z,11.00
2023-03-01T20:29:08.965Z,9.90
2023-03-01T20:31:37.306Z,10.68
2023-03-01T20:34:05.348Z,11.80
2023-03-01T20:36:34.582Z,12.50
2023-03-01T20:39:02.915Z,13.48
2023-03-01T20:41:31.894Z,12.33
2023-03-01T20:44:00.481Z,12.77
2023-03-01T20:46:32.915Z,13.57
2023-03-01T20:49:01.903Z,13.80
2023-03-01T20:51:30.747Z,14.18
2023-03-01T20:53:58.820Z,11.90
2023-03-01T20:56:27.545Z,10.77
2023-03-01T20:59:05.929Z,11.75
2023-03-01T21:01:34.270Z,11.30
2023-03-01T21:04:02.514Z,11.20
2023-03-01T21:06:31.868Z,12.00
2023-03-01T21:09:00.227Z,10.65
2023-03-01T21:11:28.292Z,11.02
2023-03-01T21:13:56.666Z,10.55
2023-03-01T21:16:25.950Z,9.70
2023-03-01T21:18:54.046Z,9.30
2023-03-01T21:21:23.498Z,8.88
2023-03-01T21:23:51.783Z,9.48
2023-03-01T21:26:23.175Z,9.32
2023-03-01T21:28:56.357Z,9.43
2023-03-01T21:31:29.748Z,10.00
2023-03-01T21:34:02.018Z,9.10
2023-03-01T21:36:31.350Z,9.45
2023-03-01T21:39:05.634Z,8.48
2023-03-01T21:41:37.786Z,9.48
2023-03-01T21:44:07.713Z,8.15
2023-03-01T21:46:38.329Z,8.45
2023-03-01T21:49:13.090Z,8.98
2023-03-01T21:51:42.244Z,8.02
2023-03-01T21:54:13.722Z,8.27
2023-03-01T21:56:43.135Z,8.70
2023-03-01T21:59:17.428Z,8.25
2023-03-01T22:01:47.357Z,8.60
2023-03-01T22:04:16.591Z,8.68
2023-03-01T22:06:47.548Z,8.90
2023-03-01T22:09:22.296Z,8.10
2023-03-01T22:11:54.178Z,11.25
2023-03-01T22:14:41.194Z,14.45
2023-03-01T22:17:41.774Z,15.63
2023-03-01T22:24:51.828Z,12.52
2023-03-01T22:31:21.001Z,10.32
2023-03-01T22:34:22.556Z,9.95
2023-03-01T22:37:11.058Z,9.88
2023-03-01T22:40:10.869Z,8.85
2023-03-01T22:42:42.037Z,8.35
2023-03-01T22:45:11.487Z,9.40
2023-03-01T22:48:04.309Z,9.23
2023-03-01T22:50:35.127Z,8.70
2023-03-01T22:53:09.075Z,9.00
2023-03-01T22:55:40.826Z,8.75
2023-03-01T22:58:09.222Z,8.45
2023-03-01T23:00:38.055Z,8.15
2023-03-01T23:03:08.834Z,7.60
2023-03-01T23:05:45.653Z,8.30
2023-03-01T23:12:12.596Z,7.53
2023-03-01T23:14:51.270Z,7.93
2023-03-01T23:17:26.146Z,7.53
2023-03-01T23:20:00.468Z,8.18
2023-03-01T23:22:42.792Z,7.80
2023-03-01T23:25:36.697Z,7.35
2023-03-01T23:28:09.332Z,8.10
2023-03-01T23:34:18.561Z,8.15
2023-03-01T23:36:53.323Z,8.35
2023-03-01T23:39:41.947Z,8.27
2023-03-01T23:42:27.015Z,8.68
2023-03-01T23:45:10.712Z,9.23
2023-03-01T23:47:40.792Z,8.50
2023-03-01T23:50:10.145Z,9.80
2023-03-01T23:52:40.285Z,9.40
2023-03-01T23:55:11.294Z,8.88
2023-03-01T23:57:39.488Z,9.15
